Kapfenberg, Austria
Current Conditions -  °F | °C
As of 4:20 PM on Friday 28 Nov 2014 (Local Time) from LOWG Reporting Station
Haze Haze  
Wind Chill: 36°   Ceiling: 400
Heat Index: 36°   Visibility: 1.5mi
Dew Point: 36°   Wind: 2mph
Humidity: 100%   Direction: NA
Pressure: 30"   Gusts: NA
Location:  47.45°N, 15.29°E
Report Text: LOWG 281420Z VRB02KT 2500 BR SCT002 OVC004 02/02 Q1016 TEMPO 3000 BKN005
Loading
Personal Weather Stations






























Interactive Weather Map New forecast layout! Learn more

10-Day Weather Forecast

Advertisements
Track Severe Weather on mobile